createdAt,value
2023-05-19T00:01:30.294Z,9.25
2023-05-19T00:04:02.385Z,5.95
2023-05-19T00:06:32.072Z,11.10
2023-05-19T00:09:08.280Z,11.02
2023-05-19T00:11:38.136Z,12.73
2023-05-19T00:14:08.491Z,10.02
2023-05-19T00:16:36.385Z,11.90
2023-05-19T00:19:05.427Z,12.93
2023-05-19T00:21:32.961Z,7.47
2023-05-19T00:24:00.130Z,10.13
2023-05-19T00:26:27.756Z,11.15
2023-05-19T00:28:55.056Z,10.52
2023-05-19T00:31:22.308Z,10.85
2023-05-19T00:33:49.421Z,8.95
2023-05-19T00:36:16.487Z,12.32
2023-05-19T00:38:43.588Z,10.32
2023-05-19T00:41:11.058Z,7.90
2023-05-19T00:43:38.134Z,11.90
2023-05-19T00:46:05.430Z,10.07
2023-05-19T00:48:32.576Z,11.05
2023-05-19T00:51:04.821Z,11.25
2023-05-19T00:53:34.324Z,12.18
2023-05-19T00:56:03.098Z,12.18
2023-05-19T00:58:32.698Z,9.55
2023-05-19T01:01:04.562Z,8.15
2023-05-19T01:03:37.292Z,12.80
2023-05-19T01:06:05.389Z,10.63
2023-05-19T01:08:37.697Z,10.25
2023-05-19T01:11:08.550Z,10.75
2023-05-19T01:13:36.932Z,11.55
2023-05-19T01:16:30.771Z,11.52
2023-05-19T01:19:21.973Z,12.07
2023-05-19T01:22:33.415Z,10.57
2023-05-19T01:25:47.137Z,9.52
2023-05-19T01:29:07.617Z,9.80
2023-05-19T01:31:38.776Z,8.02
2023-05-19T01:34:07.757Z,13.00
2023-05-19T01:36:36.135Z,9.68
2023-05-19T01:39:04.318Z,12.25
2023-05-19T01:41:33.751Z,13.77
2023-05-19T01:44:01.251Z,8.25
2023-05-19T01:46:28.378Z,14.18
2023-05-19T01:48:56.049Z,11.75
2023-05-19T01:51:23.213Z,11.15
2023-05-19T01:53:50.377Z,13.05
2023-05-19T01:56:38.296Z,16.88
2023-05-19T01:59:31.681Z,12.55
2023-05-19T02:02:02.237Z,14.00
2023-05-19T02:04:45.005Z,10.70
2023-05-19T02:07:53.718Z,12.25
2023-05-19T02:10:33.798Z,10.48
2023-05-19T02:13:04.629Z,13.18
2023-05-19T02:15:40.297Z,13.45
2023-05-19T02:18:11.728Z,11.07
2023-05-19T02:20:40.115Z,14.57
2023-05-19T02:23:07.400Z,20.55
2023-05-19T02:25:34.782Z,12.95
2023-05-19T02:28:01.903Z,15.80
2023-05-19T02:30:29.075Z,11.90
2023-05-19T02:32:56.245Z,12.48
2023-05-19T02:35:23.408Z,14.65
2023-05-19T02:37:50.541Z,16.27
2023-05-19T02:40:18.378Z,15.23
2023-05-19T02:42:45.557Z,17.00
2023-05-19T02:45:12.692Z,17.08
2023-05-19T02:47:41.478Z,15.50
2023-05-19T02:50:09.267Z,14.60
2023-05-19T02:52:36.383Z,12.75
2023-05-19T02:55:03.557Z,15.20
2023-05-19T02:57:31.855Z,17.25
2023-05-19T02:59:59.090Z,13.80
2023-05-19T03:02:26.134Z,14.52
2023-05-19T03:04:53.265Z,13.60
2023-05-19T03:07:25.049Z,16.95
2023-05-19T03:09:52.580Z,12.85
2023-05-19T03:12:19.581Z,14.18
2023-05-19T03:14:47.675Z,13.02
2023-05-19T03:17:14.865Z,16.05
2023-05-19T03:19:42.167Z,12.82
2023-05-19T03:22:09.280Z,12.75
2023-05-19T03:24:36.401Z,15.35
2023-05-19T03:27:05.950Z,14.80
2023-05-19T03:29:33.101Z,14.88
2023-05-19T03:32:00.330Z,14.75
2023-05-19T03:34:27.519Z,15.65
2023-05-19T03:36:54.569Z,16.42
2023-05-19T03:39:21.637Z,10.23
2023-05-19T03:41:48.768Z,14.88
2023-05-19T03:44:15.881Z,12.40
2023-05-19T03:46:42.973Z,12.73
2023-05-19T03:49:11.436Z,13.98
2023-05-19T03:51:38.728Z,13.68
2023-05-19T03:54:06.097Z,14.38
2023-05-19T03:56:33.263Z,10.95
2023-05-19T03:59:00.311Z,15.35
2023-05-19T04:01:27.354Z,11.82
2023-05-19T04:03:54.667Z,11.30
2023-05-19T04:06:22.094Z,11.73
2023-05-19T04:08:49.178Z,12.48
2023-05-19T04:11:16.324Z,12.70
2023-05-19T04:13:44.548Z,13.35
2023-05-19T04:16:12.320Z,13.27
2023-05-19T04:18:39.586Z,11.30
2023-05-19T04:21:08.636Z,13.13
2023-05-19T04:23:35.708Z,11.70
2023-05-19T04:26:03.754Z,13.73
2023-05-19T04:28:30.997Z,10.82
2023-05-19T04:30:58.860Z,15.88
2023-05-19T04:33:26.026Z,10.77
2023-05-19T04:35:53.048Z,13.00
2023-05-19T04:38:22.214Z,13.73
2023-05-19T04:40:50.394Z,11.82
2023-05-19T04:43:19.260Z,11.63
2023-05-19T04:45:47.339Z,13.60
2023-05-19T04:48:15.166Z,12.77
2023-05-19T04:50:42.360Z,11.52
2023-05-19T04:53:10.103Z,12.95
2023-05-19T04:55:38.744Z,10.48
2023-05-19T04:58:06.777Z,11.95
2023-05-19T05:00:35.747Z,11.25
2023-05-19T05:03:07.242Z,13.80
2023-05-19T05:05:35.324Z,10.05
2023-05-19T05:08:03.196Z,11.80
2023-05-19T05:10:30.478Z,12.30
2023-05-19T05:12:58.303Z,15.35
2023-05-19T05:15:28.688Z,12.95
2023-05-19T05:17:56.716Z,13.10
2023-05-19T05:20:24.516Z,11.25
2023-05-19T05:22:52.142Z,8.55
2023-05-19T05:25:20.275Z,13.45
2023-05-19T05:27:47.313Z,10.48
2023-05-19T05:30:14.584Z,10.38
2023-05-19T05:32:41.894Z,9.23
2023-05-19T05:35:09.687Z,12.82
2023-05-19T05:37:36.710Z,10.77
2023-05-19T05:40:04.824Z,12.55
2023-05-19T05:42:31.923Z,13.20
2023-05-19T05:44:58.979Z,11.10
2023-05-19T05:47:26.550Z,10.85
2023-05-19T05:49:53.992Z,10.07
2023-05-19T05:52:22.972Z,12.35
2023-05-19T05:54:50.893Z,9.23
2023-05-19T05:57:18.356Z,10.13
2023-05-19T05:59:47.154Z,10.75
2023-05-19T06:02:14.618Z,8.98
2023-05-19T06:04:41.917Z,12.23
2023-05-19T06:07:08.991Z,8.93
2023-05-19T06:09:36.647Z,10.20
2023-05-19T06:12:04.262Z,9.30
2023-05-19T06:14:31.282Z,10.85
2023-05-19T06:16:58.363Z,11.18
2023-05-19T06:19:25.788Z,8.48
2023-05-19T06:21:53.005Z,11.48
2023-05-19T06:24:20.187Z,9.65
2023-05-19T06:26:47.501Z,13.35
2023-05-19T06:29:14.757Z,8.77
2023-05-19T06:31:41.953Z,13.55
2023-05-19T06:34:12.296Z,11.77
2023-05-19T06:36:41.451Z,10.93
2023-05-19T06:39:08.559Z,8.77
2023-05-19T06:41:35.723Z,8.40
2023-05-19T06:44:04.216Z,9.30
2023-05-19T06:46:31.386Z,12.93
2023-05-19T06:48:58.588Z,10.05
2023-05-19T06:51:25.871Z,8.93
2023-05-19T06:53:53.102Z,9.30
2023-05-19T06:56:20.243Z,8.65
2023-05-19T06:58:47.284Z,9.98
2023-05-19T07:01:14.421Z,7.05
2023-05-19T07:03:41.869Z,10.75
2023-05-19T07:06:09.275Z,11.73
2023-05-19T07:08:37.306Z,9.90
2023-05-19T07:11:04.948Z,8.00
2023-05-19T07:13:33.028Z,10.73
2023-05-19T07:16:00.274Z,7.00
2023-05-19T07:18:27.430Z,7.53
2023-05-19T07:20:54.550Z,7.70
2023-05-19T07:23:21.691Z,9.88
2023-05-19T07:25:48.791Z,11.60
2023-05-19T07:28:15.988Z,7.55
2023-05-19T07:30:43.243Z,5.82
2023-05-19T07:33:10.358Z,9.23
2023-05-19T07:35:37.664Z,7.95
2023-05-19T07:38:04.824Z,6.40
2023-05-19T07:40:32.202Z,9.60
2023-05-19T07:42:59.519Z,6.85
2023-05-19T07:45:26.599Z,7.85
2023-05-19T07:47:54.473Z,8.43
2023-05-19T07:50:21.662Z,7.82
2023-05-19T07:52:48.705Z,11.50
2023-05-19T07:55:16.197Z,8.07
2023-05-19T07:57:43.270Z,7.05
2023-05-19T08:00:12.561Z,10.43
2023-05-19T08:02:39.839Z,7.97
2023-05-19T08:05:09.248Z,10.60
2023-05-19T08:07:36.650Z,8.40
2023-05-19T08:10:05.261Z,8.48
2023-05-19T08:12:32.553Z,7.15
2023-05-19T08:15:01.312Z,8.60
2023-05-19T08:17:28.944Z,9.43
2023-05-19T08:19:56.063Z,10.30
2023-05-19T08:22:23.411Z,7.78
2023-05-19T08:24:51.880Z,6.97
2023-05-19T08:27:18.973Z,5.93
2023-05-19T08:29:46.058Z,9.13
2023-05-19T08:32:13.446Z,6.63
2023-05-19T08:34:41.460Z,7.57
2023-05-19T08:37:08.796Z,6.25
2023-05-19T08:39:35.954Z,7.00
2023-05-19T08:42:03.205Z,5.70
2023-05-19T08:44:31.297Z,8.32
2023-05-19T08:47:03.855Z,7.13
2023-05-19T08:49:43.371Z,7.28
2023-05-19T08:52:35.912Z,7.07
2023-05-19T08:55:15.572Z,10.52
2023-05-19T08:57:43.204Z,5.72
2023-05-19T09:00:12.322Z,8.35
2023-05-19T09:02:50.402Z,6.60
2023-05-19T09:05:27.482Z,5.35
2023-05-19T09:07:55.136Z,6.03
2023-05-19T09:10:22.434Z,6.45
2023-05-19T09:12:49.904Z,4.80
2023-05-19T09:15:20.284Z,9.70
2023-05-19T09:17:50.571Z,3.55
2023-05-19T09:20:18.195Z,4.35
2023-05-19T09:22:47.486Z,3.88
2023-05-19T09:25:24.123Z,8.80
2023-05-19T09:27:51.529Z,9.95
2023-05-19T09:30:19.560Z,3.90
2023-05-19T09:32:48.088Z,13.10
2023-05-19T09:35:20.254Z,6.72
2023-05-19T09:37:47.426Z,4.38
2023-05-19T09:40:16.366Z,4.80
2023-05-19T09:42:44.358Z,5.82
2023-05-19T09:45:12.080Z,5.72
2023-05-19T09:47:42.140Z,5.72
2023-05-19T09:50:12.454Z,5.03
2023-05-19T09:52:42.898Z,6.32
2023-05-19T09:55:12.849Z,3.38
2023-05-19T09:57:40.828Z,9.95
2023-05-19T10:00:17.866Z,3.78
2023-05-19T10:02:51.035Z,5.45
2023-05-19T10:05:20.910Z,3.70
2023-05-19T10:07:52.395Z,4.97
2023-05-19T10:10:20.916Z,5.32
2023-05-19T10:12:49.839Z,3.30
2023-05-19T10:15:21.406Z,4.10
2023-05-19T10:17:51.325Z,3.03
2023-05-19T10:20:19.054Z,6.35
2023-05-19T10:22:46.800Z,5.93
2023-05-19T10:25:15.323Z,4.60
2023-05-19T10:28:10.976Z,4.55
2023-05-19T10:30:43.574Z,4.65
2023-05-19T10:33:16.191Z,5.28
2023-05-19T10:36:27.183Z,4.93
2023-05-19T10:39:06.312Z,6.20
2023-05-19T10:41:59.453Z,5.88
2023-05-19T10:45:02.806Z,4.95
2023-05-19T10:47:30.593Z,5.90
2023-05-19T10:50:01.363Z,3.55
2023-05-19T10:52:30.998Z,7.65
2023-05-19T10:54:58.402Z,5.18
2023-05-19T10:57:32.186Z,4.63
2023-05-19T11:00:11.098Z,8.82
2023-05-19T11:02:50.896Z,5.10
2023-05-19T11:05:20.975Z,7.07
2023-05-19T11:08:11.595Z,4.35
2023-05-19T11:10:47.096Z,4.10
2023-05-19T11:13:22.731Z,6.00
2023-05-19T11:15:50.203Z,2.95
2023-05-19T11:18:17.399Z,4.50
2023-05-19T11:20:59.984Z,5.25
2023-05-19T11:23:27.337Z,3.45
2023-05-19T11:25:54.528Z,3.80
2023-05-19T11:28:28.169Z,7.22
2023-05-19T11:31:01.211Z,4.93
2023-05-19T11:33:28.604Z,6.60
2023-05-19T11:36:00.338Z,7.03
2023-05-19T11:38:30.180Z,3.35
2023-05-19T11:40:57.635Z,5.30
2023-05-19T11:43:26.179Z,3.83
2023-05-19T11:45:55.239Z,2.80
2023-05-19T11:48:27.526Z,3.72
2023-05-19T11:50:57.144Z,3.58
2023-05-19T11:53:24.592Z,3.97
2023-05-19T11:55:52.017Z,5.82
2023-05-19T11:58:26.983Z,5.78
2023-05-19T12:00:54.637Z,7.55
2023-05-19T12:03:28.107Z,5.15
2023-05-19T12:05:58.543Z,4.93
2023-05-19T12:08:27.238Z,6.35
2023-05-19T12:10:54.385Z,4.50
2023-05-19T12:13:23.055Z,5.88
2023-05-19T12:15:52.593Z,3.45
2023-05-19T12:18:20.388Z,4.95
2023-05-19T12:20:47.767Z,2.85
2023-05-19T12:23:15.083Z,4.90
2023-05-19T12:25:42.457Z,9.00
2023-05-19T12:28:10.093Z,5.50
2023-05-19T12:30:37.754Z,4.70
2023-05-19T12:33:05.559Z,3.80
2023-05-19T12:35:34.042Z,5.30
2023-05-19T12:38:06.717Z,4.38
2023-05-19T12:40:36.291Z,7.05
2023-05-19T12:43:04.530Z,5.55
2023-05-19T12:45:37.117Z,8.77
2023-05-19T12:48:16.698Z,5.68
2023-05-19T12:50:45.286Z,6.28
2023-05-19T12:53:13.656Z,4.68
2023-05-19T12:55:45.440Z,2.90
2023-05-19T12:58:13.381Z,5.93
2023-05-19T13:00:44.887Z,3.58
2023-05-19T13:03:20.647Z,7.68
2023-05-19T13:05:51.206Z,4.80
2023-05-19T13:08:24.163Z,7.18
2023-05-19T13:10:54.687Z,5.40
2023-05-19T13:13:22.031Z,2.78
2023-05-19T13:15:49.409Z,5.03
2023-05-19T13:18:17.494Z,5.38
2023-05-19T13:20:46.467Z,6.43
2023-05-19T13:23:14.814Z,4.60
2023-05-19T13:25:42.630Z,7.47
2023-05-19T13:28:10.334Z,4.53
2023-05-19T13:30:40.838Z,3.78
2023-05-19T13:33:08.133Z,4.60
2023-05-19T13:35:38.425Z,4.78
2023-05-19T13:38:10.757Z,3.17
2023-05-19T13:40:39.637Z,6.97
2023-05-19T13:43:07.906Z,5.25
2023-05-19T13:45:35.097Z,4.43
2023-05-19T13:48:02.504Z,6.00
2023-05-19T13:50:29.722Z,6.22
2023-05-19T13:52:56.804Z,6.00
2023-05-19T13:55:24.240Z,6.72
2023-05-19T13:57:51.310Z,4.72
2023-05-19T14:00:19.593Z,7.85
2023-05-19T14:02:47.061Z,5.15
2023-05-19T14:05:14.455Z,4.97
2023-05-19T14:07:42.556Z,5.32
2023-05-19T14:10:10.239Z,6.05
2023-05-19T14:12:55.001Z,5.45
2023-05-19T14:15:24.516Z,4.93
2023-05-19T14:17:53.068Z,4.55
2023-05-19T14:20:20.513Z,5.93
2023-05-19T14:22:47.627Z,4.60
2023-05-19T14:25:14.908Z,7.78
2023-05-19T14:27:42.018Z,5.00
2023-05-19T14:30:09.777Z,4.53
2023-05-19T14:32:36.943Z,4.13
2023-05-19T14:35:04.732Z,4.90
2023-05-19T14:37:32.376Z,4.32
2023-05-19T14:39:59.921Z,4.80
2023-05-19T14:42:27.092Z,4.15
2023-05-19T14:44:54.312Z,4.35
2023-05-19T14:47:21.450Z,4.57
2023-05-19T14:49:48.759Z,4.03
2023-05-19T14:52:15.882Z,4.50
2023-05-19T14:54:42.986Z,5.93
2023-05-19T14:57:12.918Z,7.10
2023-05-19T14:59:40.257Z,8.60
2023-05-19T15:02:07.848Z,6.22
2023-05-19T15:04:34.954Z,3.42
2023-05-19T15:09:31.967Z,3.45
2023-05-19T15:12:01.220Z,3.72
2023-05-19T15:14:30.594Z,4.97
2023-05-19T15:16:58.657Z,8.40
2023-05-19T15:19:26.181Z,7.43
2023-05-19T15:21:53.702Z,6.00
2023-05-19T15:24:20.850Z,5.95
2023-05-19T15:26:48.225Z,5.97
2023-05-19T15:29:15.341Z,5.85
2023-05-19T15:31:42.455Z,4.35
2023-05-19T15:34:09.690Z,4.90
2023-05-19T15:36:36.839Z,6.35
2023-05-19T15:39:04.010Z,4.68
2023-05-19T15:41:31.176Z,4.78
2023-05-19T15:44:00.338Z,5.63
2023-05-19T15:46:28.101Z,4.68
2023-05-19T15:48:55.591Z,3.65
2023-05-19T15:51:22.954Z,5.40
2023-05-19T15:53:50.141Z,5.82
2023-05-19T15:56:17.606Z,5.25
2023-05-19T15:58:45.084Z,6.30
2023-05-19T16:01:12.372Z,5.15
2023-05-19T16:03:39.605Z,4.00
2023-05-19T16:06:06.897Z,3.63
2023-05-19T16:08:34.067Z,6.18
2023-05-19T16:11:01.127Z,4.68
2023-05-19T16:13:29.741Z,5.35
2023-05-19T16:15:57.277Z,4.53
2023-05-19T16:18:24.324Z,4.47
2023-05-19T16:20:52.010Z,4.45
2023-05-19T16:23:19.153Z,4.13
2023-05-19T16:25:47.070Z,4.95
2023-05-19T16:28:14.715Z,7.47
2023-05-19T16:30:42.589Z,5.85
2023-05-19T16:33:09.712Z,5.68
2023-05-19T16:35:37.096Z,5.53
2023-05-19T16:38:04.199Z,4.90
2023-05-19T16:40:31.333Z,4.28
2023-05-19T16:42:58.472Z,6.93
2023-05-19T16:45:26.605Z,5.40
2023-05-19T16:47:53.779Z,3.92
2023-05-19T16:50:20.843Z,3.40
2023-05-19T16:52:47.878Z,5.68
2023-05-19T16:55:19.730Z,5.13
2023-05-19T16:57:47.427Z,3.90
2023-05-19T17:00:15.618Z,5.30
2023-05-19T17:02:42.864Z,5.22
2023-05-19T17:05:10.123Z,5.15
2023-05-19T17:07:37.185Z,4.22
2023-05-19T17:10:04.960Z,4.35
2023-05-19T17:12:32.267Z,13.80
2023-05-19T17:14:59.337Z,4.20
2023-05-19T17:17:26.506Z,8.00
2023-05-19T17:19:53.700Z,2.58
2023-05-19T17:22:20.869Z,4.30
2023-05-19T17:24:48.090Z,3.92
2023-05-19T17:27:15.261Z,5.15
2023-05-19T17:29:42.449Z,7.50
2023-05-19T17:32:09.653Z,5.13
2023-05-19T17:34:36.823Z,5.13
2023-05-19T17:37:04.244Z,4.85
2023-05-19T17:39:31.413Z,6.70
2023-05-19T17:41:58.592Z,4.07
2023-05-19T17:44:25.812Z,3.20
2023-05-19T17:46:53.223Z,6.07
2023-05-19T17:49:22.959Z,4.28
2023-05-19T17:51:50.570Z,3.38
2023-05-19T17:54:18.195Z,3.55
2023-05-19T17:56:45.912Z,4.80
2023-05-19T17:59:13.215Z,11.05
2023-05-19T18:01:41.023Z,5.95
2023-05-19T18:04:09.008Z,4.90
2023-05-19T18:06:40.890Z,6.72
2023-05-19T18:09:09.099Z,2.47
2023-05-19T18:11:36.792Z,3.70
2023-05-19T18:14:03.880Z,8.15
2023-05-19T18:16:31.269Z,7.05
2023-05-19T18:18:58.664Z,5.15
2023-05-19T18:21:29.668Z,6.95
2023-05-19T18:23:59.617Z,8.15
2023-05-19T18:26:26.825Z,6.43
2023-05-19T18:28:53.927Z,4.70
2023-05-19T18:31:21.086Z,4.70
2023-05-19T18:33:49.122Z,4.80
2023-05-19T18:36:16.673Z,4.68
2023-05-19T18:38:43.918Z,4.63
2023-05-19T18:41:11.109Z,5.75
2023-05-19T18:43:39.079Z,3.35
2023-05-19T18:46:06.816Z,4.28
2023-05-19T18:48:33.905Z,2.97
2023-05-19T18:51:03.654Z,6.43
2023-05-19T18:53:34.837Z,5.90
2023-05-19T18:56:05.758Z,4.22
2023-05-19T18:58:33.111Z,5.65
2023-05-19T19:01:00.269Z,5.75
2023-05-19T19:03:28.596Z,4.93
2023-05-19T19:05:59.340Z,3.65
2023-05-19T19:08:26.643Z,4.65
2023-05-19T19:10:59.233Z,7.53
2023-05-19T19:13:26.867Z,3.90
2023-05-19T19:15:54.157Z,4.45
2023-05-19T19:18:21.266Z,6.65
2023-05-19T19:20:48.456Z,2.55
2023-05-19T19:23:15.499Z,5.57
2023-05-19T19:25:45.714Z,7.80
2023-05-19T19:28:13.038Z,4.10
2023-05-19T19:30:40.556Z,3.72
2023-05-19T19:33:07.732Z,4.15
2023-05-19T19:35:35.059Z,4.57
2023-05-19T19:38:02.400Z,3.22
2023-05-19T19:40:29.711Z,2.38
2023-05-19T19:42:56.849Z,4.40
2023-05-19T19:45:24.074Z,3.25
2023-05-19T19:47:51.756Z,4.25
2023-05-19T19:50:19.008Z,2.47
2023-05-19T19:52:46.251Z,8.02
2023-05-19T19:55:13.682Z,4.80
2023-05-19T19:57:40.782Z,3.42
2023-05-19T20:00:09.330Z,5.00
2023-05-19T20:02:55.361Z,2.88
2023-05-19T20:05:26.922Z,2.88
2023-05-19T20:07:54.011Z,3.85
2023-05-19T20:10:21.036Z,4.18
2023-05-19T20:12:48.211Z,4.10
2023-05-19T20:15:15.614Z,3.63
2023-05-19T20:17:42.832Z,7.95
2023-05-19T20:20:14.108Z,5.18
2023-05-19T20:22:41.238Z,6.43
2023-05-19T20:25:11.548Z,6.88
2023-05-19T20:27:38.600Z,3.85
2023-05-19T20:30:06.625Z,4.07
2023-05-19T20:32:33.810Z,2.65
2023-05-19T20:35:00.902Z,3.42
2023-05-19T20:37:27.929Z,4.18
2023-05-19T20:39:54.982Z,3.45
2023-05-19T20:42:22.166Z,6.32
2023-05-19T20:44:49.209Z,6.68
2023-05-19T20:47:16.291Z,2.92
2023-05-19T20:49:43.407Z,5.97
2023-05-19T20:52:10.849Z,3.20
2023-05-19T20:54:38.255Z,6.35
2023-05-19T20:57:09.138Z,9.93
2023-05-19T20:59:36.559Z,7.28
2023-05-19T21:02:04.452Z,5.18
2023-05-19T21:04:33.046Z,4.13
2023-05-19T21:07:01.181Z,4.10
2023-05-19T21:09:28.285Z,4.95
2023-05-19T21:11:55.487Z,5.30
2023-05-19T21:14:23.090Z,4.28
2023-05-19T21:16:54.354Z,7.30
2023-05-19T21:19:22.093Z,3.95
2023-05-19T21:21:49.592Z,6.82
2023-05-19T21:24:16.803Z,4.00
2023-05-19T21:26:44.084Z,4.35
2023-05-19T21:29:11.206Z,4.80
2023-05-19T21:31:38.508Z,6.32
2023-05-19T21:34:07.575Z,4.47
2023-05-19T21:36:35.348Z,3.75
2023-05-19T21:39:02.622Z,4.15
2023-05-19T21:41:31.230Z,3.90
2023-05-19T21:43:58.382Z,3.80
2023-05-19T21:46:26.653Z,3.58
2023-05-19T21:48:53.734Z,5.75
2023-05-19T21:51:21.257Z,2.85
2023-05-19T21:53:48.236Z,4.45
2023-05-19T21:56:16.415Z,2.63
2023-05-19T21:58:43.463Z,3.55
2023-05-19T22:01:10.577Z,5.72
2023-05-19T22:03:37.771Z,4.85
2023-05-19T22:06:06.556Z,7.40
2023-05-19T22:08:33.693Z,3.17
2023-05-19T22:11:00.779Z,6.53
2023-05-19T22:13:27.786Z,2.92
2023-05-19T22:15:55.109Z,5.13
2023-05-19T22:18:22.464Z,4.00
2023-05-19T22:20:49.561Z,6.35
2023-05-19T22:23:16.691Z,6.00
2023-05-19T22:25:43.899Z,6.40
2023-05-19T22:28:11.018Z,8.65
2023-05-19T22:30:40.949Z,3.42
2023-05-19T22:33:09.465Z,4.53
2023-05-19T22:35:36.892Z,4.63
2023-05-19T22:38:03.915Z,4.28
2023-05-19T22:40:31.149Z,4.07
2023-05-19T22:42:58.220Z,4.25
2023-05-19T22:45:25.589Z,4.07
2023-05-19T22:47:52.764Z,2.92
2023-05-19T22:50:20.126Z,9.95
2023-05-19T22:52:47.361Z,3.75
2023-05-19T22:55:14.493Z,4.63
2023-05-19T22:57:41.515Z,4.15
2023-05-19T23:00:09.732Z,4.68
2023-05-19T23:02:37.006Z,4.55
2023-05-19T23:05:04.426Z,2.83
2023-05-19T23:07:31.487Z,4.15
2023-05-19T23:09:58.581Z,3.38
2023-05-19T23:12:25.937Z,4.82
2023-05-19T23:14:53.433Z,5.82
2023-05-19T23:17:20.440Z,5.30
2023-05-19T23:19:47.499Z,5.85
2023-05-19T23:22:14.597Z,6.65
2023-05-19T23:24:41.606Z,4.45
2023-05-19T23:27:08.688Z,6.57
2023-05-19T23:29:35.932Z,4.93
2023-05-19T23:32:03.206Z,2.58
2023-05-19T23:34:30.224Z,2.78
2023-05-19T23:36:57.259Z,3.80
2023-05-19T23:39:25.477Z,2.75
2023-05-19T23:41:52.688Z,5.45
2023-05-19T23:44:19.739Z,5.45
2023-05-19T23:46:46.822Z,5.18
2023-05-19T23:49:14.629Z,4.95
2023-05-19T23:51:41.693Z,3.83
2023-05-19T23:54:08.701Z,3.35
2023-05-19T23:56:35.779Z,5.35
2023-05-19T23:59:02.856Z,6.20
